sensor_id;sensor_type;location;lat;lon;timestamp;pressure;altitude;pressure_sealevel;temperature;humidity
11987;BME280;6053;51.382;6.768;2023-03-14T00:01:12;98731.97;;;11.65;100.00
11987;BME280;6053;51.382;6.768;2023-03-14T00:03:42;98739.84;;;11.87;100.00
11987;BME280;6053;51.382;6.768;2023-03-14T00:06:12;98731.00;;;11.85;100.00
11987;BME280;6053;51.382;6.768;2023-03-14T00:08:43;98716.84;;;12.21;100.00
11987;BME280;6053;51.382;6.768;2023-03-14T00:11:16;98709.66;;;12.20;100.00
11987;BME280;6053;51.382;6.768;2023-03-14T00:13:47;98695.56;;;12.21;100.00
11987;BME280;6053;51.382;6.768;2023-03-14T00:16:16;98688.94;;;12.84;100.00
11987;BME280;6053;51.382;6.768;2023-03-14T00:18:45;98683.31;;;12.27;100.00
11987;BME280;6053;51.382;6.768;2023-03-14T00:21:14;98686.00;;;12.09;100.00
11987;BME280;6053;51.382;6.768;2023-03-14T00:23:44;98695.47;;;12.02;100.00
11987;BME280;6053;51.382;6.768;2023-03-14T00:26:15;98698.84;;;12.47;100.00
11987;BME280;6053;51.382;6.768;2023-03-14T00:28:44;98711.13;;;12.36;100.00
11987;BME280;6053;51.382;6.768;2023-03-14T00:31:14;98731.75;;;12.20;100.00
11987;BME280;6053;51.382;6.768;2023-03-14T00:33:44;98756.88;;;11.16;100.00
11987;BME280;6053;51.382;6.768;2023-03-14T00:36:15;98762.28;;;10.87;100.00
11987;BME280;6053;51.382;6.768;2023-03-14T00:38:46;98759.84;;;10.75;100.00
11987;BME280;6053;51.382;6.768;2023-03-14T00:41:17;98759.03;;;10.69;100.00
11987;BME280;6053;51.382;6.768;2023-03-14T00:43:46;98757.13;;;10.65;100.00
11987;BME280;6053;51.382;6.768;2023-03-14T00:46:15;98754.69;;;10.53;100.00
11987;BME280;6053;51.382;6.768;2023-03-14T00:48:45;98740.13;;;10.32;100.00
11987;BME280;6053;51.382;6.768;2023-03-14T00:51:14;98740.47;;;9.84;100.00
11987;BME280;6053;51.382;6.768;2023-03-14T00:53:44;98743.66;;;10.58;100.00
11987;BME280;6053;51.382;6.768;2023-03-14T00:56:13;98738.22;;;10.17;100.00
11987;BME280;6053;51.382;6.768;2023-03-14T00:58:42;98736.75;;;10.55;100.00
11987;BME280;6053;51.382;6.768;2023-03-14T01:01:14;98747.19;;;10.69;100.00
11987;BME280;6053;51.382;6.768;2023-03-14T01:03:43;98743.13;;;10.46;100.00
11987;BME280;6053;51.382;6.768;2023-03-14T01:06:13;98748.97;;;11.04;100.00
11987;BME280;6053;51.382;6.768;2023-03-14T01:08:44;98746.63;;;10.77;100.00
11987;BME280;6053;51.382;6.768;2023-03-14T01:11:14;98765.41;;;11.24;100.00
11987;BME280;6053;51.382;6.768;2023-03-14T01:13:44;98756.66;;;10.42;100.00
11987;BME280;6053;51.382;6.768;2023-03-14T01:16:14;98754.41;;;10.54;100.00
11987;BME280;6053;51.382;6.768;2023-03-14T01:18:43;98731.72;;;10.73;100.00
11987;BME280;6053;51.382;6.768;2023-03-14T01:21:14;98751.47;;;11.45;100.00
11987;BME280;6053;51.382;6.768;2023-03-14T01:23:45;98730.19;;;10.46;100.00
11987;BME280;6053;51.382;6.768;2023-03-14T01:26:16;98726.34;;;10.37;100.00
11987;BME280;6053;51.382;6.768;2023-03-14T01:28:47;98737.06;;;10.49;100.00
11987;BME280;6053;51.382;6.768;2023-03-14T01:31:16;98737.34;;;10.47;100.00
11987;BME280;6053;51.382;6.768;2023-03-14T01:33:45;98732.03;;;10.66;100.00
11987;BME280;6053;51.382;6.768;2023-03-14T01:36:15;98733.13;;;11.20;100.00
11987;BME280;6053;51.382;6.768;2023-03-14T01:38:43;98720.16;;;10.71;100.00
11987;BME280;6053;51.382;6.768;2023-03-14T01:41:16;98724.13;;;11.04;100.00
11987;BME280;6053;51.382;6.768;2023-03-14T01:43:44;98711.44;;;11.42;100.00
11987;BME280;6053;51.382;6.768;2023-03-14T01:46:22;98718.28;;;10.56;100.00
11987;BME280;6053;51.382;6.768;2023-03-14T01:49:06;98725.13;;;11.23;100.00
11987;BME280;6053;51.382;6.768;2023-03-14T01:51:42;98726.31;;;10.42;100.00
11987;BME280;6053;51.382;6.768;2023-03-14T01:54:17;98725.16;;;10.64;100.00
11987;BME280;6053;51.382;6.768;2023-03-14T01:56:52;98716.53;;;10.75;100.00
11987;BME280;6053;51.382;6.768;2023-03-14T01:59:22;98726.66;;;10.95;100.00
11987;BME280;6053;51.382;6.768;2023-03-14T02:01:51;98720.13;;;10.81;100.00
11987;BME280;6053;51.382;6.768;2023-03-14T02:04:20;98723.59;;;10.37;100.00
11987;BME280;6053;51.382;6.768;2023-03-14T02:06:52;98708.63;;;10.64;100.00
11987;BME280;6053;51.382;6.768;2023-03-14T02:09:24;98703.56;;;10.81;100.00
11987;BME280;6053;51.382;6.768;2023-03-14T02:11:54;98707.66;;;10.89;100.00
11987;BME280;6053;51.382;6.768;2023-03-14T02:14:30;98708.72;;;10.93;100.00
11987;BME280;6053;51.382;6.768;2023-03-14T02:17:01;98710.38;;;11.38;100.00
11987;BME280;6053;51.382;6.768;2023-03-14T02:19:48;98710.41;;;10.94;100.00
11987;BME280;6053;51.382;6.768;2023-03-14T02:22:19;98705.16;;;11.71;100.00
11987;BME280;6053;51.382;6.768;2023-03-14T02:24:51;98713.06;;;11.43;100.00
11987;BME280;6053;51.382;6.768;2023-03-14T02:27:26;98706.28;;;11.30;100.00
11987;BME280;6053;51.382;6.768;2023-03-14T02:29:57;98709.91;;;11.26;100.00
11987;BME280;6053;51.382;6.768;2023-03-14T02:32:29;98714.16;;;11.47;100.00
11987;BME280;6053;51.382;6.768;2023-03-14T02:35:00;98717.00;;;11.37;100.00
11987;BME280;6053;51.382;6.768;2023-03-14T02:37:37;98733.03;;;11.30;100.00
11987;BME280;6053;51.382;6.768;2023-03-14T02:40:07;98721.75;;;10.87;100.00
11987;BME280;6053;51.382;6.768;2023-03-14T02:42:38;98724.94;;;10.50;100.00
11987;BME280;6053;51.382;6.768;2023-03-14T02:45:30;98719.13;;;11.11;100.00
11987;BME280;6053;51.382;6.768;2023-03-14T02:48:03;98716.53;;;11.25;100.00
11987;BME280;6053;51.382;6.768;2023-03-14T02:50:34;98726.38;;;11.36;100.00
11987;BME280;6053;51.382;6.768;2023-03-14T02:53:03;98710.47;;;11.23;100.00
11987;BME280;6053;51.382;6.768;2023-03-14T02:55:31;98715.47;;;11.21;100.00
11987;BME280;6053;51.382;6.768;2023-03-14T02:58:01;98712.66;;;11.26;100.00
11987;BME280;6053;51.382;6.768;2023-03-14T03:00:30;98714.41;;;11.17;100.00
11987;BME280;6053;51.382;6.768;2023-03-14T03:02:59;98711.47;;;10.98;100.00
11987;BME280;6053;51.382;6.768;2023-03-14T03:05:28;98707.06;;;10.32;100.00
11987;BME280;6053;51.382;6.768;2023-03-14T03:07:56;98694.22;;;11.16;100.00
11987;BME280;6053;51.382;6.768;2023-03-14T03:10:25;98687.97;;;11.40;100.00
11987;BME280;6053;51.382;6.768;2023-03-14T03:12:54;98677.34;;;11.91;100.00
11987;BME280;6053;51.382;6.768;2023-03-14T03:15:24;98676.34;;;11.14;100.00
11987;BME280;6053;51.382;6.768;2023-03-14T03:17:53;98682.56;;;10.85;100.00
11987;BME280;6053;51.382;6.768;2023-03-14T03:20:21;98674.53;;;10.94;100.00
11987;BME280;6053;51.382;6.768;2023-03-14T03:22:50;98671.31;;;11.55;100.00
11987;BME280;6053;51.382;6.768;2023-03-14T03:25:19;98667.97;;;11.24;100.00
11987;BME280;6053;51.382;6.768;2023-03-14T03:27:47;98673.72;;;11.62;100.00
11987;BME280;6053;51.382;6.768;2023-03-14T03:30:16;98681.25;;;12.38;100.00
11987;BME280;6053;51.382;6.768;2023-03-14T03:32:46;98679.69;;;11.40;100.00
11987;BME280;6053;51.382;6.768;2023-03-14T03:35:15;98683.59;;;11.39;100.00
11987;BME280;6053;51.382;6.768;2023-03-14T03:37:44;98673.72;;;10.93;100.00
11987;BME280;6053;51.382;6.768;2023-03-14T03:40:13;98682.50;;;10.95;100.00
11987;BME280;6053;51.382;6.768;2023-03-14T03:42:41;98678.53;;;11.51;100.00
11987;BME280;6053;51.382;6.768;2023-03-14T03:45:10;98680.69;;;11.88;100.00
11987;BME280;6053;51.382;6.768;2023-03-14T03:47:39;98682.50;;;10.95;100.00
11987;BME280;6053;51.382;6.768;2023-03-14T03:50:10;98669.38;;;11.55;100.00
11987;BME280;6053;51.382;6.768;2023-03-14T03:52:38;98664.13;;;11.88;100.00
11987;BME280;6053;51.382;6.768;2023-03-14T03:55:08;98662.00;;;11.06;100.00
11987;BME280;6053;51.382;6.768;2023-03-14T03:57:36;98660.81;;;10.83;100.00
11987;BME280;6053;51.382;6.768;2023-03-14T04:00:06;98662.59;;;11.03;100.00
11987;BME280;6053;51.382;6.768;2023-03-14T04:02:37;98657.84;;;11.14;100.00
11987;BME280;6053;51.382;6.768;2023-03-14T04:05:08;98664.59;;;10.38;100.00
11987;BME280;6053;51.382;6.768;2023-03-14T04:07:37;98656.44;;;10.07;100.00
11987;BME280;6053;51.382;6.768;2023-03-14T04:10:06;98664.16;;;9.95;100.00
11987;BME280;6053;51.382;6.768;2023-03-14T04:12:35;98672.78;;;10.58;100.00
11987;BME280;6053;51.382;6.768;2023-03-14T04:15:04;98665.06;;;10.60;100.00
11987;BME280;6053;51.382;6.768;2023-03-14T04:17:33;98671.88;;;9.98;100.00
11987;BME280;6053;51.382;6.768;2023-03-14T04:20:02;98659.34;;;11.65;100.00
11987;BME280;6053;51.382;6.768;2023-03-14T04:22:33;98655.78;;;10.41;100.00
11987;BME280;6053;51.382;6.768;2023-03-14T04:25:01;98650.69;;;11.08;100.00
11987;BME280;6053;51.382;6.768;2023-03-14T04:27:31;98645.66;;;11.49;100.00
11987;BME280;6053;51.382;6.768;2023-03-14T04:30:00;98652.09;;;11.05;100.00
11987;BME280;6053;51.382;6.768;2023-03-14T04:32:28;98652.28;;;10.80;100.00
11987;BME280;6053;51.382;6.768;2023-03-14T04:34:57;98653.47;;;10.58;100.00
11987;BME280;6053;51.382;6.768;2023-03-14T04:37:25;98655.84;;;10.21;100.00
11987;BME280;6053;51.382;6.768;2023-03-14T04:39:55;98652.13;;;9.60;100.00
11987;BME280;6053;51.382;6.768;2023-03-14T04:42:24;98649.09;;;10.57;100.00
11987;BME280;6053;51.382;6.768;2023-03-14T04:44:53;98645.66;;;10.81;100.00
11987;BME280;6053;51.382;6.768;2023-03-14T04:47:21;98635.34;;;11.60;100.00
11987;BME280;6053;51.382;6.768;2023-03-14T04:49:50;98642.75;;;11.01;100.00
11987;BME280;6053;51.382;6.768;2023-03-14T04:52:18;98628.91;;;9.97;100.00
11987;BME280;6053;51.382;6.768;2023-03-14T04:54:47;98631.53;;;10.38;100.00
11987;BME280;6053;51.382;6.768;2023-03-14T04:57:17;98625.50;;;10.26;100.00
11987;BME280;6053;51.382;6.768;2023-03-14T04:59:46;98615.34;;;10.16;100.00
11987;BME280;6053;51.382;6.768;2023-03-14T05:02:14;98623.06;;;10.74;100.00
11987;BME280;6053;51.382;6.768;2023-03-14T05:04:43;98616.38;;;10.85;100.00
11987;BME280;6053;51.382;6.768;2023-03-14T05:07:12;98615.78;;;11.56;100.00
11987;BME280;6053;51.382;6.768;2023-03-14T05:09:41;98611.44;;;11.50;100.00
11987;BME280;6053;51.382;6.768;2023-03-14T05:12:09;98610.09;;;11.72;100.00
11987;BME280;6053;51.382;6.768;2023-03-14T05:14:39;98605.06;;;11.79;100.00
11987;BME280;6053;51.382;6.768;2023-03-14T05:17:08;98595.53;;;10.69;100.00
11987;BME280;6053;51.382;6.768;2023-03-14T05:19:37;98604.19;;;10.91;100.00
11987;BME280;6053;51.382;6.768;2023-03-14T05:22:06;98600.41;;;11.16;100.00
11987;BME280;6053;51.382;6.768;2023-03-14T05:24:35;98590.19;;;10.82;100.00
11987;BME280;6053;51.382;6.768;2023-03-14T05:27:03;98594.38;;;10.30;100.00
11987;BME280;6053;51.382;6.768;2023-03-14T05:29:32;98583.34;;;11.09;100.00
11987;BME280;6053;51.382;6.768;2023-03-14T05:32:02;98592.38;;;10.41;100.00
11987;BME280;6053;51.382;6.768;2023-03-14T05:34:31;98577.00;;;11.67;100.00
11987;BME280;6053;51.382;6.768;2023-03-14T05:37:00;98571.19;;;10.81;100.00
11987;BME280;6053;51.382;6.768;2023-03-14T05:39:28;98565.78;;;11.29;100.00
11987;BME280;6053;51.382;6.768;2023-03-14T05:41:57;98564.59;;;11.40;100.00
11987;BME280;6053;51.382;6.768;2023-03-14T05:44:25;98564.97;;;11.28;100.00
11987;BME280;6053;51.382;6.768;2023-03-14T05:46:54;98557.16;;;11.94;100.00
11987;BME280;6053;51.382;6.768;2023-03-14T05:49:24;98570.34;;;11.15;100.00
11987;BME280;6053;51.382;6.768;2023-03-14T05:51:53;98571.22;;;12.16;100.00
11987;BME280;6053;51.382;6.768;2023-03-14T05:54:21;98572.44;;;12.29;100.00
11987;BME280;6053;51.382;6.768;2023-03-14T05:56:50;98568.84;;;12.29;100.00
11987;BME280;6053;51.382;6.768;2023-03-14T05:59:18;98565.13;;;11.95;100.00
11987;BME280;6053;51.382;6.768;2023-03-14T06:01:47;98572.06;;;11.05;100.00
11987;BME280;6053;51.382;6.768;2023-03-14T06:04:16;98566.69;;;11.77;100.00
11987;BME280;6053;51.382;6.768;2023-03-14T06:06:46;98567.00;;;12.24;100.00
11987;BME280;6053;51.382;6.768;2023-03-14T06:09:14;98560.88;;;10.92;100.00
11987;BME280;6053;51.382;6.768;2023-03-14T06:11:43;98559.91;;;10.77;100.00
11987;BME280;6053;51.382;6.768;2023-03-14T06:14:13;98561.22;;;11.43;100.00
11987;BME280;6053;51.382;6.768;2023-03-14T06:16:42;98562.41;;;10.74;100.00
11987;BME280;6053;51.382;6.768;2023-03-14T06:19:10;98563.84;;;11.00;100.00
11987;BME280;6053;51.382;6.768;2023-03-14T06:21:39;98569.56;;;11.09;100.00
11987;BME280;6053;51.382;6.768;2023-03-14T06:24:09;98569.19;;;11.21;100.00
11987;BME280;6053;51.382;6.768;2023-03-14T06:26:38;98570.41;;;10.21;100.00
11987;BME280;6053;51.382;6.768;2023-03-14T06:29:06;98560.56;;;10.59;100.00
11987;BME280;6053;51.382;6.768;2023-03-14T06:31:35;98568.44;;;10.76;100.00
11987;BME280;6053;51.382;6.768;2023-03-14T06:34:05;98571.34;;;10.95;100.00
11987;BME280;6053;51.382;6.768;2023-03-14T06:36:33;98565.75;;;11.05;100.00
11987;BME280;6053;51.382;6.768;2023-03-14T06:39:03;98571.50;;;11.08;100.00
11987;BME280;6053;51.382;6.768;2023-03-14T06:41:33;98568.69;;;11.43;100.00
11987;BME280;6053;51.382;6.768;2023-03-14T06:44:02;98566.56;;;11.05;100.00
11987;BME280;6053;51.382;6.768;2023-03-14T06:46:31;98572.84;;;11.69;100.00
11987;BME280;6053;51.382;6.768;2023-03-14T06:48:59;98573.94;;;11.97;100.00
11987;BME280;6053;51.382;6.768;2023-03-14T06:51:28;98575.06;;;11.14;100.00
11987;BME280;6053;51.382;6.768;2023-03-14T06:53:56;98571.00;;;10.12;100.00
11987;BME280;6053;51.382;6.768;2023-03-14T06:56:25;98582.84;;;10.13;100.00
11987;BME280;6053;51.382;6.768;2023-03-14T06:58:55;98578.81;;;10.89;100.00
11987;BME280;6053;51.382;6.768;2023-03-14T07:01:26;98576.56;;;10.96;100.00
11987;BME280;6053;51.382;6.768;2023-03-14T07:03:55;98585.47;;;10.88;100.00
11987;BME280;6053;51.382;6.768;2023-03-14T07:06:25;98587.75;;;10.21;100.00
11987;BME280;6053;51.382;6.768;2023-03-14T07:08:53;98584.69;;;10.38;100.00
11987;BME280;6053;51.382;6.768;2023-03-14T07:11:22;98587.19;;;10.29;100.00
11987;BME280;6053;51.382;6.768;2023-03-14T07:13:51;98587.28;;;10.64;100.00
11987;BME280;6053;51.382;6.768;2023-03-14T07:16:21;98589.22;;;11.02;100.00
11987;BME280;6053;51.382;6.768;2023-03-14T07:18:50;98596.03;;;11.44;100.00
11987;BME280;6053;51.382;6.768;2023-03-14T07:21:19;98602.28;;;11.55;100.00
11987;BME280;6053;51.382;6.768;2023-03-14T07:23:47;98585.44;;;10.54;100.00
11987;BME280;6053;51.382;6.768;2023-03-14T07:26:16;98598.97;;;10.45;100.00
11987;BME280;6053;51.382;6.768;2023-03-14T07:28:45;98600.13;;;11.18;100.00
11987;BME280;6053;51.382;6.768;2023-03-14T07:31:13;98602.84;;;11.23;100.00
11987;BME280;6053;51.382;6.768;2023-03-14T07:33:43;98606.19;;;11.78;100.00
11987;BME280;6053;51.382;6.768;2023-03-14T07:36:12;98596.88;;;11.11;100.00
11987;BME280;6053;51.382;6.768;2023-03-14T07:38:41;98593.97;;;11.26;100.00
11987;BME280;6053;51.382;6.768;2023-03-14T07:41:09;98606.28;;;10.65;100.00
11987;BME280;6053;51.382;6.768;2023-03-14T07:43:38;98608.63;;;10.43;100.00
11987;BME280;6053;51.382;6.768;2023-03-14T07:46:07;98604.72;;;10.54;100.00
11987;BME280;6053;51.382;6.768;2023-03-14T07:48:36;98619.81;;;10.67;100.00
11987;BME280;6053;51.382;6.768;2023-03-14T07:51:06;98613.00;;;11.56;100.00
11987;BME280;6053;51.382;6.768;2023-03-14T07:53:35;98618.09;;;11.15;100.00
11987;BME280;6053;51.382;6.768;2023-03-14T07:56:04;98609.22;;;10.84;100.00
11987;BME280;6053;51.382;6.768;2023-03-14T07:58:33;98619.88;;;10.96;100.00
11987;BME280;6053;51.382;6.768;2023-03-14T08:01:01;98620.94;;;11.00;100.00
11987;BME280;6053;51.382;6.768;2023-03-14T08:03:30;98633.22;;;10.83;100.00
11987;BME280;6053;51.382;6.768;2023-03-14T08:05:59;98631.13;;;10.65;100.00
11987;BME280;6053;51.382;6.768;2023-03-14T08:08:29;98622.38;;;10.92;100.00
11987;BME280;6053;51.382;6.768;2023-03-14T08:11:03;98627.81;;;11.37;100.00
11987;BME280;6053;51.382;6.768;2023-03-14T08:13:32;98634.16;;;11.03;100.00
11987;BME280;6053;51.382;6.768;2023-03-14T08:16:00;98632.53;;;11.36;100.00
11987;BME280;6053;51.382;6.768;2023-03-14T08:18:29;98625.19;;;10.87;100.00
11987;BME280;6053;51.382;6.768;2023-03-14T08:20:58;98625.41;;;11.30;100.00
11987;BME280;6053;51.382;6.768;2023-03-14T08:23:28;98628.94;;;11.36;100.00
11987;BME280;6053;51.382;6.768;2023-03-14T08:25:57;98625.69;;;11.28;100.00
11987;BME280;6053;51.382;6.768;2023-03-14T08:28:25;98618.28;;;11.53;100.00
11987;BME280;6053;51.382;6.768;2023-03-14T08:30:58;98631.81;;;10.86;100.00
11987;BME280;6053;51.382;6.768;2023-03-14T08:33:28;98623.03;;;11.18;100.00
11987;BME280;6053;51.382;6.768;2023-03-14T08:35:58;98635.38;;;11.26;100.00
11987;BME280;6053;51.382;6.768;2023-03-14T08:38:29;98643.78;;;11.11;100.00
11987;BME280;6053;51.382;6.768;2023-03-14T08:40:58;98637.59;;;10.40;100.00
11987;BME280;6053;51.382;6.768;2023-03-14T08:43:27;98640.00;;;10.96;100.00
11987;BME280;6053;51.382;6.768;2023-03-14T08:45:58;98643.22;;;11.14;100.00
11987;BME280;6053;51.382;6.768;2023-03-14T08:48:27;98650.81;;;10.38;100.00
11987;BME280;6053;51.382;6.768;2023-03-14T08:51:03;98640.41;;;10.20;100.00
11987;BME280;6053;51.382;6.768;2023-03-14T08:53:33;98649.78;;;10.78;100.00
11987;BME280;6053;51.382;6.768;2023-03-14T08:56:02;98656.22;;;11.08;100.00
11987;BME280;6053;51.382;6.768;2023-03-14T08:58:33;98653.66;;;10.77;100.00
11987;BME280;6053;51.382;6.768;2023-03-14T09:01:04;98668.28;;;10.78;100.00
11987;BME280;6053;51.382;6.768;2023-03-14T09:03:33;98678.94;;;10.95;100.00
11987;BME280;6053;51.382;6.768;2023-03-14T09:06:03;98674.84;;;10.87;100.00
11987;BME280;6053;51.382;6.768;2023-03-14T09:08:33;98680.56;;;10.46;100.00
11987;BME280;6053;51.382;6.768;2023-03-14T09:11:07;98686.63;;;10.48;100.00
11987;BME280;6053;51.382;6.768;2023-03-14T09:13:36;98748.41;;;10.37;100.00
11987;BME280;6053;51.382;6.768;2023-03-14T09:16:07;98761.66;;;9.33;100.00
11987;BME280;6053;51.382;6.768;2023-03-14T09:18:36;98769.00;;;8.96;100.00
11987;BME280;6053;51.382;6.768;2023-03-14T09:21:05;98780.13;;;9.68;100.00
11987;BME280;6053;51.382;6.768;2023-03-14T09:23:35;98795.81;;;10.24;100.00
11987;BME280;6053;51.382;6.768;2023-03-14T09:26:04;98793.91;;;9.63;100.00
11987;BME280;6053;51.382;6.768;2023-03-14T09:28:33;98804.91;;;9.88;100.00
11987;BME280;6053;51.382;6.768;2023-03-14T09:31:06;98830.69;;;10.84;100.00
11987;BME280;6053;51.382;6.768;2023-03-14T09:33:35;98838.78;;;9.74;100.00
11987;BME280;6053;51.382;6.768;2023-03-14T09:36:06;98852.50;;;9.48;100.00
11987;BME280;6053;51.382;6.768;2023-03-14T09:38:37;98857.75;;;9.65;100.00
11987;BME280;6053;51.382;6.768;2023-03-14T09:41:14;98869.88;;;8.91;100.00
11987;BME280;6053;51.382;6.768;2023-03-14T09:43:44;98874.59;;;9.84;100.00
11987;BME280;6053;51.382;6.768;2023-03-14T09:46:14;98876.31;;;9.12;100.00
11987;BME280;6053;51.382;6.768;2023-03-14T09:48:43;98891.84;;;9.49;100.00
11987;BME280;6053;51.382;6.768;2023-03-14T09:51:16;98902.47;;;10.64;100.00
11987;BME280;6053;51.382;6.768;2023-03-14T09:53:48;98914.81;;;10.87;100.00
11987;BME280;6053;51.382;6.768;2023-03-14T09:56:19;98918.16;;;10.84;100.00
11987;BME280;6053;51.382;6.768;2023-03-14T09:58:54;98923.38;;;10.75;100.00
11987;BME280;6053;51.382;6.768;2023-03-14T10:01:26;98936.91;;;10.36;100.00
11987;BME280;6053;51.382;6.768;2023-03-14T10:04:00;98941.19;;;9.71;100.00
11987;BME280;6053;51.382;6.768;2023-03-14T10:06:31;98953.44;;;10.36;100.00
11987;BME280;6053;51.382;6.768;2023-03-14T10:09:02;98961.69;;;10.10;100.00
11987;BME280;6053;51.382;6.768;2023-03-14T10:11:32;98969.16;;;10.56;100.00
11987;BME280;6053;51.382;6.768;2023-03-14T10:14:06;98979.88;;;10.22;100.00
11987;BME280;6053;51.382;6.768;2023-03-14T10:16:37;99002.34;;;8.78;100.00
11987;BME280;6053;51.382;6.768;2023-03-14T10:19:11;99008.16;;;9.24;100.00
11987;BME280;6053;51.382;6.768;2023-03-14T10:21:42;99011.09;;;10.68;100.00
11987;BME280;6053;51.382;6.768;2023-03-14T10:24:19;99033.34;;;11.48;100.00
11987;BME280;6053;51.382;6.768;2023-03-14T10:26:52;99051.53;;;9.59;100.00
11987;BME280;6053;51.382;6.768;2023-03-14T10:29:21;99049.66;;;9.17;100.00
11987;BME280;6053;51.382;6.768;2023-03-14T10:31:54;99052.69;;;9.68;100.00
11987;BME280;6053;51.382;6.768;2023-03-14T10:34:25;99073.13;;;9.82;100.00
11987;BME280;6053;51.382;6.768;2023-03-14T10:36:55;99096.22;;;9.71;100.00
11987;BME280;6053;51.382;6.768;2023-03-14T10:39:37;99099.50;;;9.68;100.00
11987;BME280;6053;51.382;6.768;2023-03-14T10:42:19;99124.72;;;9.12;100.00
11987;BME280;6053;51.382;6.768;2023-03-14T10:44:51;99138.41;;;9.39;100.00
11987;BME280;6053;51.382;6.768;2023-03-14T10:47:24;99145.38;;;9.52;100.00
11987;BME280;6053;51.382;6.768;2023-03-14T10:49:56;99166.06;;;8.41;100.00
11987;BME280;6053;51.382;6.768;2023-03-14T10:52:27;99168.50;;;8.16;100.00
11987;BME280;6053;51.382;6.768;2023-03-14T10:55:13;99193.94;;;7.89;100.00
11987;BME280;6053;51.382;6.768;2023-03-14T10:57:43;99208.69;;;7.83;100.00
11987;BME280;6053;51.382;6.768;2023-03-14T11:00:15;99216.84;;;8.17;100.00
11987;BME280;6053;51.382;6.768;2023-03-14T11:02:57;99221.50;;;8.16;100.00
11987;BME280;6053;51.382;6.768;2023-03-14T11:05:31;99238.56;;;8.18;100.00
11987;BME280;6053;51.382;6.768;2023-03-14T11:08:07;99242.56;;;9.53;100.00
11987;BME280;6053;51.382;6.768;2023-03-14T11:10:38;99269.88;;;9.59;100.00
11987;BME280;6053;51.382;6.768;2023-03-14T11:13:16;99287.19;;;9.28;100.00
11987;BME280;6053;51.382;6.768;2023-03-14T11:15:54;99287.69;;;10.69;100.00
11987;BME280;6053;51.382;6.768;2023-03-14T11:18:49;99297.41;;;9.91;100.00
11987;BME280;6053;51.382;6.768;2023-03-14T11:21:26;99307.06;;;9.62;100.00
11987;BME280;6053;51.382;6.768;2023-03-14T11:24:09;99317.72;;;10.23;100.00
11987;BME280;6053;51.382;6.768;2023-03-14T11:26:48;99329.97;;;9.13;100.00
11987;BME280;6053;51.382;6.768;2023-03-14T11:29:24;99335.16;;;9.37;100.00
11987;BME280;6053;51.382;6.768;2023-03-14T11:31:59;99344.28;;;7.99;100.00
11987;BME280;6053;51.382;6.768;2023-03-14T11:34:34;99349.59;;;8.56;100.00
11987;BME280;6053;51.382;6.768;2023-03-14T11:37:06;99361.75;;;9.26;100.00
11987;BME280;6053;51.382;6.768;2023-03-14T11:39:39;99360.47;;;9.34;100.00
11987;BME280;6053;51.382;6.768;2023-03-14T11:42:12;99376.16;;;8.89;100.00
11987;BME280;6053;51.382;6.768;2023-03-14T11:44:45;99377.91;;;8.95;100.00
11987;BME280;6053;51.382;6.768;2023-03-14T11:47:17;99388.66;;;10.00;100.00
11987;BME280;6053;51.382;6.768;2023-03-14T11:49:50;99386.72;;;9.19;100.00
11987;BME280;6053;51.382;6.768;2023-03-14T11:52:23;99394.81;;;8.32;100.00
11987;BME280;6053;51.382;6.768;2023-03-14T11:55:00;99404.38;;;9.24;100.00
11987;BME280;6053;51.382;6.768;2023-03-14T11:57:33;99417.03;;;9.74;100.00
11987;BME280;6053;51.382;6.768;2023-03-14T12:00:05;99430.19;;;9.01;100.00
11987;BME280;6053;51.382;6.768;2023-03-14T12:02:43;99432.38;;;9.20;100.00
11987;BME280;6053;51.382;6.768;2023-03-14T12:08:39;99453.13;;;10.26;100.00
11987;BME280;6053;51.382;6.768;2023-03-14T12:11:19;99458.91;;;9.76;100.00
11987;BME280;6053;51.382;6.768;2023-03-14T12:13:52;99472.75;;;9.81;100.00
11987;BME280;6053;51.382;6.768;2023-03-14T12:16:40;99475.28;;;9.60;100.00
11987;BME280;6053;51.382;6.768;2023-03-14T12:19:36;99479.78;;;9.94;100.00
11987;BME280;6053;51.382;6.768;2023-03-14T12:22:26;99496.25;;;10.15;100.00
11987;BME280;6053;51.382;6.768;2023-03-14T12:25:00;99507.88;;;10.23;100.00
11987;BME280;6053;51.382;6.768;2023-03-14T12:27:46;99510.78;;;9.01;100.00
11987;BME280;6053;51.382;6.768;2023-03-14T12:30:28;99517.09;;;9.57;100.00
11987;BME280;6053;51.382;6.768;2023-03-14T12:33:19;99528.16;;;9.84;100.00
11987;BME280;6053;51.382;6.768;2023-03-14T12:35:51;99532.94;;;9.94;100.00
11987;BME280;6053;51.382;6.768;2023-03-14T12:38:25;99551.28;;;8.38;100.00
11987;BME280;6053;51.382;6.768;2023-03-14T12:41:01;99560.25;;;8.96;100.00
11987;BME280;6053;51.382;6.768;2023-03-14T12:43:33;99562.00;;;9.41;100.00
11987;BME280;6053;51.382;6.768;2023-03-14T12:46:20;99575.47;;;8.53;100.00
11987;BME280;6053;51.382;6.768;2023-03-14T12:48:50;99601.41;;;8.17;100.00
11987;BME280;6053;51.382;6.768;2023-03-14T12:51:29;99606.19;;;8.50;100.00
11987;BME280;6053;51.382;6.768;2023-03-14T12:54:08;99608.34;;;10.32;100.00
11987;BME280;6053;51.382;6.768;2023-03-14T12:57:02;99613.09;;;9.71;100.00
11987;BME280;6053;51.382;6.768;2023-03-14T12:59:34;99625.59;;;8.89;100.00
11987;BME280;6053;51.382;6.768;2023-03-14T13:02:20;99639.91;;;9.25;100.00
11987;BME280;6053;51.382;6.768;2023-03-14T13:04:52;99642.56;;;9.53;100.00
11987;BME280;6053;51.382;6.768;2023-03-14T13:08:01;99646.16;;;9.54;100.00
11987;BME280;6053;51.382;6.768;2023-03-14T13:10:30;99659.13;;;8.74;100.00
11987;BME280;6053;51.382;6.768;2023-03-14T13:13:15;99659.56;;;8.66;100.00
11987;BME280;6053;51.382;6.768;2023-03-14T13:15:47;99698.56;;;8.51;100.00
11987;BME280;6053;51.382;6.768;2023-03-14T13:18:26;99705.81;;;8.57;100.00
11987;BME280;6053;51.382;6.768;2023-03-14T13:20:58;99718.97;;;8.03;100.00
11987;BME280;6053;51.382;6.768;2023-03-14T13:23:30;99717.44;;;6.95;100.00
11987;BME280;6053;51.382;6.768;2023-03-14T13:26:00;99725.28;;;8.67;100.00
11987;BME280;6053;51.382;6.768;2023-03-14T13:28:30;99731.72;;;8.09;100.00